»·PEaware :: AAL319 KFAT-KSMF

AAL319 :: KFAT-KSMF

FLIGHT INFORMATION

Flight Status: Arrived
Operator:
American Airlines
More flights by this operator :: More flights under this callsign
Pilot: Erik K. (18332)
Aircraft: BOEING 737-800
(B738)
More flights by this aircraft type
Origin: KFAT Fresno Yosemite Intl
United States
Destination: KSMF Sacramento Intl
United States
More flights between these airports :: More routes between these airports
Route: +CZQ V23 CAPTO
File this flight plan on PilotEdge
Remarks:
Altitude:
(Current/Filed)
18,000ft
Speed:
(Current/Filed)
300kts
Departed: 22-May-19 07:37 PM
Arrived: 22-May-19 08:17 PM
Distance/Time
Traveled:
145nm/0:40
Distance/Time
To Go:
Arrived

Flight Plot

Page will automatically refresh every two minutes.

Flight plan parsing failed; only flown route is shown


Map Options




Map Legend


Flown Route
Filed Route
Departure Airport
Arrival Airport
Navaid (VOR, NDB)
Fix

Horizontal Profiles

Position Reports

Time Latitude Longitude Heading Altitude Ground
Speed
22-May-19 19:13 36.771155 -119.719537 125 329ft 0kts
22-May-19 19:14 36.771155 -119.719537 125 329ft 0kts
22-May-19 19:14 36.771155 -119.719537 125 329ft 0kts
22-May-19 19:16 36.771069 -119.720056 29 329ft 2kts
22-May-19 19:17 36.770999 -119.720108 34 329ft 0kts
22-May-19 19:17 36.770999 -119.720108 34 329ft 0kts
22-May-19 19:19 36.770999 -119.720108 34 329ft 0kts
22-May-19 19:19 36.771000 -119.720108 34 329ft 0kts
22-May-19 19:20 36.770999 -119.720108 34 329ft 0kts
22-May-19 19:21 36.770999 -119.720108 34 329ft 0kts
22-May-19 19:22 36.770999 -119.720108 34 329ft 0kts
22-May-19 19:23 36.770999 -119.720108 34 329ft 0kts
22-May-19 19:24 36.770999 -119.720108 34 329ft 0kts
22-May-19 19:25 36.770999 -119.720108 34 329ft 0kts
22-May-19 19:26 36.770999 -119.720108 34 329ft 0kts
22-May-19 19:27 36.770999 -119.720108 34 329ft 0kts
22-May-19 19:28 36.772511 -119.719391 38 331ft 19kts
22-May-19 19:29 36.771221 -119.714184 129 331ft 17kts
22-May-19 19:30 36.768720 -119.709736 126 332ft 15kts
22-May-19 19:31 36.767904 -119.704595 41 335ft 0kts
22-May-19 19:32 36.767904 -119.704595 41 335ft 0kts
22-May-19 19:33 36.767904 -119.704595 41 335ft 0kts
22-May-19 19:34 36.767904 -119.704595 41 335ft 0kts
22-May-19 19:35 36.769428 -119.704579 304 336ft 3kts
22-May-19 19:36 36.792188 -119.744101 307 1243ft 183kts
22-May-19 19:37 36.824105 -119.790472 308 1822ft 196kts
22-May-19 19:38 36.862875 -119.843065 328 4234ft 238kts
22-May-19 19:39 36.924301 -119.887317 329 7541ft 264kts
22-May-19 19:40 36.988687 -119.933532 330 9986ft 271kts
22-May-19 19:41 37.054831 -119.981781 327 12900ft 282kts
22-May-19 19:42 37.118155 -120.044745 324 15699ft 298kts
22-May-19 19:43 37.184444 -120.110232 324 18332ft 310kts
22-May-19 19:44 37.253373 -120.178413 324 19838ft 319kts
22-May-19 19:45 37.327801 -120.252087 324 19831ft 364kts
22-May-19 19:46 37.410009 -120.334049 324 19749ft 382kts
22-May-19 19:47 37.493123 -120.416979 324 19514ft 380kts
22-May-19 19:48 37.576060 -120.499849 324 19709ft 381kts
22-May-19 19:49 37.657844 -120.581960 324 19816ft 370kts
22-May-19 19:50 37.736382 -120.661052 324 19824ft 360kts
22-May-19 19:51 37.814202 -120.739516 324 19499ft 353kts
22-May-19 19:52 37.890286 -120.816542 323 17193ft 345kts
22-May-19 19:53 37.963821 -120.891308 323 15052ft 335kts
22-May-19 19:54 38.035357 -120.964007 323 13979ft 329kts
22-May-19 19:55 38.102071 -121.043050 313 13976ft 329kts
22-May-19 19:56 38.156909 -121.125565 315 13975ft 295kts
22-May-19 19:57 38.209936 -121.203980 315 12960ft 292kts
22-May-19 19:58 38.266925 -121.273642 340 11417ft 276kts
22-May-19 19:59 38.338846 -121.306327 343 9647ft 278kts
22-May-19 20:00 38.413585 -121.336889 343 7554ft 286kts
22-May-19 20:01 38.490305 -121.366250 343 5450ft 290kts
22-May-19 20:02 38.564492 -121.393453 343 3643ft 258kts
22-May-19 20:03 38.630422 -121.412966 353 2968ft 236kts
22-May-19 20:04 38.695761 -121.420809 353 2941ft 237kts
22-May-19 20:05 38.761233 -121.428696 353 2433ft 236kts
22-May-19 20:06 38.822273 -121.436423 353 2007ft 205kts
22-May-19 20:07 38.879095 -121.443913 353 1991ft 205kts
22-May-19 20:08 38.924920 -121.475717 281 2012ft 204kts
22-May-19 20:09 38.919911 -121.548313 263 1981ft 198kts
22-May-19 20:10 38.912690 -121.614091 263 1995ft 184kts
22-May-19 20:11 38.876816 -121.631137 145 2000ft 173kts
22-May-19 20:12 38.838968 -121.594822 143 2004ft 162kts
22-May-19 20:13 38.797883 -121.578173 185 1806ft 160kts
22-May-19 20:14 38.755194 -121.579311 182 1002ft 148kts
22-May-19 20:15 38.714166 -121.579959 183 212ft 147kts
22-May-19 20:16 38.684352 -121.580523 201 24ft 25kts
22-May-19 20:17 38.683646 -121.581951 272 24ft 0kts
22-May-19 20:18 38.685589 -121.583110 1 24ft 25kts
22-May-19 20:19 38.691219 -121.583024 353 24ft 22kts
22-May-19 20:20 38.692916 -121.585891 282 26ft 3kts
22-May-19 20:21 38.692921 -121.585924 282 26ft 0kts
22-May-19 20:22 38.692921 -121.585924 282 26ft 0kts

Navigation Log

Ident Type
Flight plan parsing failed, navigation log unavailable